Time;durP1;ratioP1;P1;durP2;ratioP2;P2;SDS_P1;SDS_P2;PMS_P1;PMS_P2;Temp;Humidity;BMP_temperature;BMP_pressure;BME280_temperature;BME280_humidity;BME280_pressure;Samples;Min_cycle;Max_cycle;Signal;HPM_P1;HPM_P2
2020/12/03 00:00:22;;;;;;;72.88;40.55;;;;;;;0.69;75.37;100993.03;10096232;28;20172;-76
2020/12/03 00:05:18;;;;;;;75.03;40.97;;;;;;;0.71;75.25;100980.97;10106431;28;20407;-77
2020/12/03 00:10:15;;;;;;;73.97;40.55;;;;;;;0.65;75.04;100978.44;10112490;28;20046;-78
2020/12/03 00:15:11;;;;;;;74.78;39.50;;;;;;;0.51;75.44;100954.56;10089253;28;20053;-78
2020/12/03 00:20:16;;;;;;;76.05;38.90;;;;;;;0.47;76.16;100958.81;10111486;28;20049;-79
2020/12/03 00:25:13;;;;;;;72.00;41.45;;;;;;;0.51;76.32;100965.34;10104175;28;20105;-79
2020/12/03 00:30:09;;;;;;;75.40;41.97;;;;;;;0.50;76.78;100955.63;10098873;28;20047;-77
2020/12/03 00:35:05;;;;;;;72.05;39.63;;;;;;;0.66;76.10;100945.09;10094692;28;20492;-80
2020/12/03 00:40:01;;;;;;;82.47;45.03;;;;;;;0.72;75.97;100944.09;10095595;28;20047;-81
2020/12/03 00:44:57;;;;;;;74.95;41.83;;;;;;;0.83;76.12;100940.50;10097060;28;20137;-81
2020/12/03 00:49:56;;;;;;;69.72;39.85;;;;;;;0.86;75.80;100920.34;10094699;28;20050;-80
2020/12/03 00:54:52;;;;;;;71.85;41.08;;;;;;;0.83;75.57;100908.19;10080469;28;20046;-81
2020/12/03 00:59:48;;;;;;;74.93;40.22;;;;;;;0.84;75.77;100899.06;10104097;28;20054;-81
2020/12/03 01:04:45;;;;;;;71.13;40.80;;;;;;;0.80;75.50;100889.84;10095238;28;20042;-80
2020/12/03 01:09:42;;;;;;;79.40;41.30;;;;;;;0.69;75.50;100885.38;10096437;28;20068;-82
2020/12/03 01:14:39;;;;;;;72.03;38.60;;;;;;;0.70;76.04;100873.59;10098827;28;20130;-81
2020/12/03 01:19:36;;;;;;;74.15;42.83;;;;;;;0.77;76.41;100871.53;10098089;28;20043;-81
2020/12/03 01:24:33;;;;;;;72.47;41.03;;;;;;;0.80;76.02;100862.94;10091600;28;20509;-81
2020/12/03 01:29:29;;;;;;;74.45;42.20;;;;;;;0.87;76.32;100850.09;10106575;28;20454;-81
2020/12/03 01:34:25;;;;;;;76.93;43.38;;;;;;;0.85;76.44;100849.53;10127297;28;20055;-81
2020/12/03 01:39:22;;;;;;;70.93;39.95;;;;;;;0.90;75.87;100844.22;10100195;28;20049;-81
2020/12/03 01:44:39;;;;;;;71.70;38.42;;;;;;;0.93;75.83;100838.34;10087554;28;20054;-81
2020/12/03 01:49:35;;;;;;;74.07;40.90;;;;;;;1.00;75.36;100828.19;10104332;28;20042;-81
2020/12/03 01:54:31;;;;;;;67.65;37.72;;;;;;;1.10;75.67;100837.47;10100323;28;20510;-79
2020/12/03 01:59:35;;;;;;;74.18;38.38;;;;;;;1.05;75.21;100820.19;10106769;28;20050;-81
2020/12/03 02:04:31;;;;;;;66.20;37.40;;;;;;;1.17;74.90;100816.53;10096678;28;20050;-81
2020/12/03 02:09:28;;;;;;;70.55;38.47;;;;;;;1.25;74.82;100810.69;10096379;28;20057;-81
2020/12/03 02:14:25;;;;;;;71.57;39.38;;;;;;;1.24;74.41;100814.47;10091439;28;20047;-81
2020/12/03 02:19:26;;;;;;;68.95;37.95;;;;;;;1.22;74.12;100792.34;10105087;28;20142;-81
2020/12/03 02:24:25;;;;;;;73.68;40.05;;;;;;;1.25;74.41;100786.44;10080395;28;20138;-80
2020/12/03 02:29:22;;;;;;;65.45;36.67;;;;;;;1.21;73.97;100777.28;10103917;28;20045;-81
2020/12/03 02:34:20;;;;;;;66.45;37.60;;;;;;;1.20;74.09;100768.34;10111944;28;20495;-81
2020/12/03 02:39:19;;;;;;;62.55;34.20;;;;;;;1.21;74.57;100763.81;10100768;28;20130;-81
2020/12/03 02:44:16;;;;;;;61.92;37.20;;;;;;;1.25;73.59;100754.97;10107542;28;20053;-81
2020/12/03 02:49:13;;;;;;;67.75;38.75;;;;;;;1.29;74.14;100751.75;10092103;28;20062;-81
2020/12/03 02:54:11;;;;;;;66.32;37.10;;;;;;;1.18;73.49;100740.06;10099499;28;20039;-80
2020/12/03 02:59:08;;;;;;;62.88;33.58;;;;;;;1.16;74.29;100736.78;10090155;28;20122;-81
2020/12/03 03:04:11;;;;;;;62.92;37.00;;;;;;;1.25;74.01;100724.50;10093836;28;20124;-78
2020/12/03 03:09:08;;;;;;;61.08;33.75;;;;;;;1.16;74.16;100712.56;10085382;28;20054;-78
2020/12/03 03:14:05;;;;;;;68.55;39.22;;;;;;;1.26;73.97;100718.06;10096220;28;20094;-81
2020/12/03 03:19:01;;;;;;;65.43;38.33;;;;;;;1.25;73.91;100705.63;10096196;28;20129;-81
2020/12/03 03:23:57;;;;;;;65.57;36.55;;;;;;;1.16;74.28;100696.41;10089670;28;20051;-81
2020/12/03 03:28:54;;;;;;;63.17;36.17;;;;;;;1.24;73.60;100696.75;10100110;28;20570;-81
2020/12/03 03:33:50;;;;;;;69.28;37.78;;;;;;;1.15;74.00;100686.69;10094820;28;20074;-82
2020/12/03 03:38:46;;;;;;;66.07;36.20;;;;;;;1.21;73.73;100693.78;10095530;28;20465;-82
2020/12/03 03:43:42;;;;;;;66.47;36.80;;;;;;;1.25;73.36;100679.53;10087090;28;20046;-81
2020/12/03 03:48:38;;;;;;;62.83;35.92;;;;;;;1.23;73.48;100670.06;10103269;28;20048;-80
2020/12/03 03:53:34;;;;;;;66.80;38.00;;;;;;;1.27;73.40;100668.47;10112761;28;20146;-80
2020/12/03 03:58:31;;;;;;;63.53;36.10;;;;;;;1.22;73.40;100642.31;10089795;28;20050;-80
2020/12/03 04:03:27;;;;;;;61.67;34.05;;;;;;;1.28;73.13;100635.09;10085725;28;20084;-80
2020/12/03 04:08:25;;;;;;;64.70;35.35;;;;;;;1.17;73.07;100628.00;10097119;28;20130;-80
2020/12/03 04:13:23;;;;;;;65.88;35.90;;;;;;;1.04;73.44;100610.41;10088454;28;20081;-78
2020/12/03 04:18:26;;;;;;;63.85;34.65;;;;;;;0.97;73.55;100616.00;10082152;28;20050;-78
2020/12/03 04:23:22;;;;;;;66.75;36.25;;;;;;;0.95;73.88;100622.69;10084177;28;20074;-78
2020/12/03 04:28:19;;;;;;;65.22;36.90;;;;;;;0.95;74.03;100620.84;10088445;28;20082;-78
2020/12/03 04:33:16;;;;;;;66.20;33.63;;;;;;;0.94;73.98;100603.06;10107700;28;20043;-78
2020/12/03 04:38:14;;;;;;;62.45;34.83;;;;;;;0.93;74.19;100604.13;10098783;28;20491;-78
2020/12/03 04:43:35;;;;;;;66.95;37.45;;;;;;;0.83;74.55;100591.38;10088650;28;20442;-77
2020/12/03 04:48:34;;;;;;;63.15;34.63;;;;;;;0.79;75.05;100589.44;10087431;28;20081;-77
2020/12/03 04:53:41;;;;;;;62.47;35.03;;;;;;;0.75;75.26;100589.16;10110195;28;20046;-78
2020/12/03 04:59:33;;;;;;;62.35;33.75;;;;;;;0.74;75.40;100584.84;10088391;28;20049;-78
2020/12/03 05:05:04;;;;;;;62.67;35.30;;;;;;;0.78;75.39;100571.69;10034427;28;20489;-79
2020/12/03 05:10:17;;;;;;;64.97;37.13;;;;;;;0.79;75.12;100557.16;10079895;28;20142;-79
2020/12/03 05:15:20;;;;;;;62.55;32.03;;;;;;;0.72;75.31;100556.56;10100219;28;20130;-80
2020/12/03 05:20:38;;;;;;;67.05;35.20;;;;;;;0.73;75.03;100563.56;10093330;28;20054;-80
2020/12/03 05:25:35;;;;;;;63.75;35.78;;;;;;;0.79;74.73;100555.28;10091654;28;20054;-78
2020/12/03 05:30:32;;;;;;;61.78;33.85;;;;;;;0.84;74.39;100543.75;10100299;28;20687;-78
2020/12/03 05:35:29;;;;;;;62.83;33.70;;;;;;;0.91;75.13;100547.03;10093798;28;20065;-78
2020/12/03 05:40:25;;;;;;;61.40;34.58;;;;;;;0.97;74.64;100534.41;10102464;28;20074;-82
2020/12/03 05:45:33;;;;;;;63.33;35.00;;;;;;;0.89;74.73;100524.13;10087302;28;20484;-79
2020/12/03 05:50:38;;;;;;;61.50;34.05;;;;;;;0.89;74.69;100524.94;10089979;28;20108;-79
2020/12/03 05:55:34;;;;;;;63.90;36.40;;;;;;;0.87;74.73;100521.69;10087344;28;20492;-78
2020/12/03 06:00:30;;;;;;;59.10;32.50;;;;;;;0.82;74.72;100508.22;10086130;28;20042;-75
2020/12/03 06:05:37;;;;;;;63.13;35.65;;;;;;;0.92;75.07;100513.66;10092389;28;20046;-76
2020/12/03 06:10:44;;;;;;;61.33;34.35;;;;;;;0.69;75.85;100508.63;10090492;28;20087;-76
2020/12/03 06:15:47;;;;;;;63.97;34.13;;;;;;;0.84;75.83;100495.31;10089639;28;20129;-77
2020/12/03 06:20:58;;;;;;;64.30;34.30;;;;;;;0.84;75.68;100500.69;10079668;28;20058;-79
2020/12/03 06:26:01;;;;;;;62.75;35.40;;;;;;;0.87;75.12;100494.78;10082541;28;20455;-77
2020/12/03 06:31:12;;;;;;;60.75;32.60;;;;;;;0.93;75.42;100483.00;10094256;28;20050;-83
2020/12/03 06:36:53;;;;;;;62.28;32.67;;;;;;;0.80;75.89;100478.03;10100779;28;20109;-83
2020/12/03 06:42:16;;;;;;;66.78;34.08;;;;;;;0.76;76.04;100471.56;9978677;29;20048;-83
2020/12/03 06:47:41;;;;;;;62.22;34.15;;;;;;;0.82;76.22;100459.75;10072625;28;20046;-82
2020/12/03 06:52:48;;;;;;;67.25;33.75;;;;;;;0.71;76.73;100452.69;10092516;28;20046;-82
2020/12/03 06:58:00;;;;;;;62.75;34.10;;;;;;;0.76;76.55;100450.00;10090980;28;20406;-81
2020/12/03 07:03:07;;;;;;;64.47;34.75;;;;;;;0.75;77.09;100448.41;10109082;28;20734;-83
2020/12/03 07:08:22;;;;;;;61.20;33.95;;;;;;;0.66;76.99;100444.56;10083962;28;20138;-82
2020/12/03 07:13:22;;;;;;;59.65;32.70;;;;;;;0.75;77.06;100443.03;10079671;28;20150;-82
2020/12/03 07:18:40;;;;;;;66.10;34.35;;;;;;;0.69;76.74;100439.47;10093914;28;20042;-82
2020/12/03 07:23:46;;;;;;;66.45;34.45;;;;;;;0.60;76.81;100441.84;10104713;28;20046;-81
2020/12/03 07:28:45;;;;;;;61.28;32.97;;;;;;;0.54;77.07;100448.25;10096882;28;20049;-82
2020/12/03 07:34:18;;;;;;;68.30;35.80;;;;;;;0.51;77.38;100432.63;10111241;28;20070;-82
2020/12/03 07:39:17;;;;;;;60.10;32.65;;;;;;;0.50;77.58;100431.00;10100311;28;20122;-78
2020/12/03 07:44:26;;;;;;;58.33;32.28;;;;;;;0.56;77.35;100429.97;10092826;28;20094;-78
2020/12/03 07:49:43;;;;;;;64.13;35.03;;;;;;;0.59;77.69;100418.69;10091726;28;20444;-78
2020/12/03 07:54:40;;;;;;;64.53;33.00;;;;;;;0.51;77.81;100424.56;10089723;28;20046;-78
2020/12/03 07:59:37;;;;;;;65.80;35.20;;;;;;;0.54;77.77;100413.28;10085032;28;20039;-80
2020/12/03 08:04:36;;;;;;;71.35;37.10;;;;;;;0.66;77.54;100406.91;10082500;28;20047;-78
2020/12/03 08:09:37;;;;;;;65.68;34.13;;;;;;;0.67;77.76;100392.38;10093954;28;20492;-75
2020/12/03 08:14:46;;;;;;;65.43;34.13;;;;;;;0.80;76.97;100383.84;10087604;28;20058;-76
2020/12/03 08:19:45;;;;;;;65.28;35.42;;;;;;;0.88;76.94;100377.94;10084632;28;20047;-76
2020/12/03 08:24:43;;;;;;;64.95;35.20;;;;;;;0.79;76.94;100369.59;10090621;28;20046;-78
2020/12/03 08:29:39;;;;;;;63.15;34.42;;;;;;;0.77;76.66;100365.53;10088675;28;20042;-82
2020/12/03 08:34:44;;;;;;;61.60;33.13;;;;;;;0.84;76.33;100368.81;10087250;28;20039;-79
2020/12/03 08:39:43;;;;;;;69.25;35.40;;;;;;;0.74;76.47;100366.03;10087515;28;20049;-81
2020/12/03 08:44:41;;;;;;;62.03;33.10;;;;;;;0.88;76.22;100344.84;10084798;28;20043;-84
2020/12/03 08:49:42;;;;;;;61.83;32.85;;;;;;;0.77;76.39;100338.63;10093994;28;20038;-81
2020/12/03 08:54:38;;;;;;;62.75;33.65;;;;;;;0.81;76.12;100320.84;10091010;28;20042;-82
2020/12/03 08:59:37;;;;;;;62.72;34.45;;;;;;;0.88;75.92;100324.13;10096202;28;20499;-81
2020/12/03 09:04:42;;;;;;;65.15;33.70;;;;;;;0.82;76.55;100319.81;10098531;28;20057;-82
2020/12/03 09:09:44;;;;;;;57.50;31.67;;;;;;;0.90;76.33;100311.22;10098477;28;20034;-83
2020/12/03 09:14:42;;;;;;;62.40;33.88;;;;;;;1.02;75.78;100311.81;10085293;28;20134;-82
2020/12/03 09:19:38;;;;;;;65.28;34.13;;;;;;;0.96;75.63;100294.00;10076878;28;20035;-81
2020/12/03 09:24:35;;;;;;;60.92;33.03;;;;;;;1.12;75.68;100302.16;10088745;28;20141;-82
2020/12/03 09:29:32;;;;;;;61.50;32.83;;;;;;;1.23;75.44;100303.78;10092437;28;20134;-82
2020/12/03 09:34:40;;;;;;;59.28;32.03;;;;;;;1.24;74.71;100305.41;10086720;28;20043;-82
2020/12/03 09:39:37;;;;;;;63.53;33.42;;;;;;;1.26;75.27;100297.88;10080291;28;20066;-83
2020/12/03 09:44:35;;;;;;;63.88;34.22;;;;;;;1.13;74.82;100304.56;10079489;28;20109;-84
2020/12/03 09:49:33;;;;;;;65.72;35.03;;;;;;;1.13;75.35;100282.22;10099107;28;20054;-82
2020/12/03 09:54:35;;;;;;;66.70;34.17;;;;;;;1.17;74.97;100275.22;10099062;28;20043;-82
2020/12/03 09:59:32;;;;;;;62.65;34.58;;;;;;;1.11;75.20;100268.19;10095606;28;20463;-81
2020/12/03 10:05:23;;;;;;;66.28;34.58;;;;;;;1.17;75.19;100253.69;10105141;28;20065;-81
2020/12/03 10:10:38;;;;;;;61.30;32.58;;;;;;;1.19;75.36;100233.50;10101687;28;20082;-82
2020/12/03 10:16:10;;;;;;;60.38;33.08;;;;;;;1.25;75.08;100218.97;10085108;28;20054;-83
2020/12/03 10:21:06;;;;;;;58.20;32.03;;;;;;;1.34;74.69;100211.13;10076583;28;20043;-82
2020/12/03 10:26:11;;;;;;;61.15;33.13;;;;;;;1.36;74.51;100194.72;10094052;28;20495;-82
2020/12/03 10:31:09;;;;;;;59.50;31.35;;;;;;;1.40;74.75;100196.59;10082154;28;20134;-83
2020/12/03 10:36:18;;;;;;;55.72;32.20;;;;;;;1.42;74.46;100191.75;10085122;28;20047;-83
2020/12/03 10:41:16;;;;;;;55.50;30.48;;;;;;;1.50;74.33;100194.97;10085663;28;20046;-83
2020/12/03 10:46:21;;;;;;;57.13;31.08;;;;;;;1.52;74.22;100198.22;10088452;28;20073;-82
2020/12/03 10:51:21;;;;;;;57.70;30.40;;;;;;;1.51;74.09;100181.25;10098489;28;20500;-82
2020/12/03 10:56:26;;;;;;;57.83;33.10;;;;;;;1.55;74.47;100165.34;10096008;28;20047;-83
2020/12/03 11:01:27;;;;;;;53.38;31.08;;;;;;;1.63;74.35;100152.13;10089830;28;20463;-77
2020/12/03 11:06:29;;;;;;;59.08;30.98;;;;;;;1.65;74.30;100152.66;10089669;28;20467;-79
2020/12/03 11:11:33;;;;;;;52.15;28.80;;;;;;;1.63;74.28;100119.78;10100466;28;20092;-78
2020/12/03 11:16:32;;;;;;;56.97;30.80;;;;;;;1.69;73.88;100123.28;10097381;28;20161;-79
2020/12/03 11:22:11;;;;;;;50.53;27.70;;;;;;;1.80;73.95;100116.78;10103143;28;20077;-78
2020/12/03 11:27:08;;;;;;;51.63;28.38;;;;;;;1.91;74.29;100108.69;10093910;28;20057;-79
2020/12/03 11:32:04;;;;;;;47.28;28.25;;;;;;;1.96;73.34;100095.97;10091099;28;20066;-78
2020/12/03 11:37:00;;;;;;;52.35;27.90;;;;;;;2.00;73.17;100085.47;10092024;28;20051;-78
2020/12/03 11:48:08;;;;;;;49.33;28.27;;;;;;;1.89;73.18;100074.69;10100370;28;20495;-77
2020/12/03 11:52:37;;;;;;;51.20;28.30;;;;;;;1.97;72.94;100065.22;10108503;28;20046;-77
2020/12/03 11:57:33;;;;;;;49.40;28.48;;;;;;;1.95;73.53;100061.19;10073380;28;20680;-77
2020/12/03 12:02:29;;;;;;;45.70;26.85;;;;;;;1.90;73.40;100064.72;10085867;28;20763;-78
2020/12/03 12:07:35;;;;;;;48.22;27.55;;;;;;;1.84;73.32;100060.44;10070736;28;20054;-82
2020/12/03 12:12:33;;;;;;;50.75;25.35;;;;;;;1.71;73.52;100052.94;10096341;28;20145;-83
2020/12/03 12:17:31;;;;;;;48.33;26.65;;;;;;;1.72;74.13;100049.97;10089551;28;20043;-84
2020/12/03 12:22:27;;;;;;;49.28;26.52;;;;;;;1.82;73.65;100041.84;10096407;28;20157;-84
2020/12/03 12:27:24;;;;;;;55.70;28.27;;;;;;;1.82;74.58;100036.44;10088848;28;20054;-77
2020/12/03 12:32:21;;;;;;;50.35;27.73;;;;;;;1.76;74.60;100021.38;10088161;28;20078;-77
2020/12/03 12:37:17;;;;;;;49.13;26.83;;;;;;;1.93;74.11;100009.44;10083757;28;20730;-79
2020/12/03 12:42:14;;;;;;;43.13;25.35;;;;;;;1.91;73.35;100003.53;10090771;28;20487;-82
2020/12/03 12:47:11;;;;;;;48.90;26.67;;;;;;;2.04;73.62;99989.41;10102237;28;20051;-83
2020/12/03 12:52:08;;;;;;;43.47;25.13;;;;;;;2.00;73.81;99983.78;10082424;28;20051;-83
2020/12/03 12:57:04;;;;;;;45.83;24.88;;;;;;;2.08;73.60;99968.91;10085784;28;20070;-83
2020/12/03 13:02:01;;;;;;;43.40;25.17;;;;;;;2.16;73.17;99965.63;10091506;28;20047;-82
2020/12/03 13:06:59;;;;;;;43.83;23.20;;;;;;;2.13;73.79;99970.75;10089057;28;20124;-83
2020/12/03 13:11:55;;;;;;;48.33;25.65;;;;;;;2.04;73.45;99951.66;10090219;28;20047;-78
2020/12/03 13:16:53;;;;;;;44.78;26.15;;;;;;;2.22;73.29;99950.22;10086478;28;20098;-81
2020/12/03 13:21:49;;;;;;;43.38;23.52;;;;;;;2.16;74.18;99930.56;10097732;28;20065;-82
2020/12/03 13:26:47;;;;;;;41.70;24.77;;;;;;;2.34;73.80;99930.97;10108437;28;20050;-81
2020/12/03 13:31:47;;;;;;;40.95;23.85;;;;;;;2.23;73.80;99920.25;10090842;28;20043;-81
2020/12/03 13:36:43;;;;;;;39.72;22.60;;;;;;;2.35;73.00;99913.72;10102989;28;20043;-81
2020/12/03 13:41:40;;;;;;;38.40;22.33;;;;;;;2.22;73.39;99909.75;10096314;28;20050;-81
2020/12/03 13:46:40;;;;;;;40.65;23.90;;;;;;;2.34;73.25;99920.19;10097496;28;20423;-81
2020/12/03 13:51:36;;;;;;;41.28;23.52;;;;;;;2.26;73.58;99906.22;10090580;28;20085;-78
2020/12/03 13:56:33;;;;;;;43.15;23.95;;;;;;;2.37;73.46;99896.16;10093532;28;20054;-80
2020/12/03 14:01:30;;;;;;;38.35;22.00;;;;;;;2.43;73.64;99905.00;10093341;28;20509;-79
2020/12/03 14:06:26;;;;;;;42.78;23.23;;;;;;;2.27;73.88;99896.22;10082175;28;20130;-78
2020/12/03 14:11:22;;;;;;;43.88;24.48;;;;;;;2.26;74.21;99884.63;10113214;28;20542;-79
2020/12/03 14:16:19;;;;;;;38.08;22.10;;;;;;;2.28;73.95;99874.38;10085935;28;20129;-79
2020/12/03 14:21:15;;;;;;;39.35;23.13;;;;;;;2.29;74.40;99857.06;10113003;28;20129;-79
2020/12/03 14:26:11;;;;;;;39.60;23.83;;;;;;;2.28;73.95;99858.19;10110702;28;20046;-79
2020/12/03 14:31:08;;;;;;;43.25;23.52;;;;;;;2.25;74.57;99845.28;10086903;28;20401;-78
2020/12/03 14:36:04;;;;;;;42.78;24.88;;;;;;;2.23;74.46;99833.97;10089611;28;20077;-80
2020/12/03 14:41:00;;;;;;;41.80;23.42;;;;;;;2.20;74.74;99837.19;10082644;28;20491;-78
2020/12/03 14:45:56;;;;;;;38.53;22.63;;;;;;;2.24;74.59;99848.25;10102077;28;20075;-79
2020/12/03 14:50:53;;;;;;;43.92;24.70;;;;;;;2.08;75.19;99834.06;10093237;28;20496;-79
2020/12/03 14:55:53;;;;;;;43.10;23.27;;;;;;;2.01;75.62;99817.41;10085254;28;20059;-80
2020/12/03 15:00:49;;;;;;;39.13;22.63;;;;;;;2.04;75.86;99811.47;10092242;28;20528;-78
2020/12/03 15:05:46;;;;;;;41.95;24.58;;;;;;;2.11;75.50;99811.94;10094018;28;20126;-78
2020/12/03 15:10:45;;;;;;;38.60;23.35;;;;;;;2.22;75.74;99802.66;10100376;28;20051;-78
2020/12/03 15:15:42;;;;;;;39.90;23.23;;;;;;;2.14;75.27;99795.19;10097020;28;20077;-78
2020/12/03 15:20:38;;;;;;;44.03;24.40;;;;;;;2.07;75.76;99800.13;10096503;28;20547;-78
2020/12/03 15:25:35;;;;;;;45.38;24.80;;;;;;;2.10;76.08;99788.75;10096909;28;20050;-79
2020/12/03 15:30:31;;;;;;;39.05;22.48;;;;;;;2.15;75.98;99769.81;10087711;28;20316;-78
2020/12/03 15:35:28;;;;;;;38.13;21.15;;;;;;;2.10;76.08;99767.19;10084881;28;20076;-79
2020/12/03 15:40:24;;;;;;;41.83;23.00;;;;;;;2.18;75.56;99761.19;10092554;28;20483;-79
2020/12/03 15:45:21;;;;;;;40.53;22.10;;;;;;;2.04;76.17;99768.31;10094539;28;20050;-79
2020/12/03 15:50:17;;;;;;;44.00;24.73;;;;;;;2.08;76.18;99763.97;10083467;28;20081;-81
2020/12/03 15:55:13;;;;;;;42.78;23.00;;;;;;;2.02;76.37;99748.91;10095495;28;20042;-79
2020/12/03 16:00:09;;;;;;;44.10;23.15;;;;;;;2.07;76.36;99751.59;10096455;28;20070;-79
2020/12/03 16:05:06;;;;;;;43.50;23.08;;;;;;;2.05;76.43;99746.47;10085524;28;20042;-79
2020/12/03 16:10:02;;;;;;;43.58;23.35;;;;;;;2.01;76.61;99748.13;10086699;28;20046;-78
2020/12/03 16:14:59;;;;;;;43.42;24.30;;;;;;;2.04;76.12;99746.75;10081857;28;20047;-79
2020/12/03 16:19:55;;;;;;;46.55;23.70;;;;;;;2.11;76.05;99747.22;10087861;28;20039;-80
2020/12/03 16:24:53;;;;;;;42.85;23.10;;;;;;;2.13;76.09;99745.03;10091877;28;20641;-79
2020/12/03 16:29:49;;;;;;;46.60;24.63;;;;;;;2.16;76.06;99744.47;10099830;28;20043;-75
2020/12/03 16:34:46;;;;;;;42.72;22.80;;;;;;;2.11;75.71;99733.72;10115265;28;20057;-78
2020/12/03 16:39:42;;;;;;;44.78;23.17;;;;;;;2.06;76.05;99725.69;10110961;28;20043;-77
2020/12/03 16:44:39;;;;;;;42.95;23.02;;;;;;;2.09;76.36;99722.44;10084080;28;20146;-76
2020/12/03 16:49:37;;;;;;;42.97;23.25;;;;;;;2.12;76.16;99727.25;10088736;28;20130;-76
2020/12/03 16:54:33;;;;;;;45.47;24.00;;;;;;;1.96;76.17;99707.72;10073586;28;20101;-76
2020/12/03 16:59:30;;;;;;;46.60;24.30;;;;;;;1.98;76.25;99696.66;10095054;28;20082;-76
2020/12/03 17:04:26;;;;;;;42.25;22.90;;;;;;;2.06;76.07;99685.25;10098711;28;20055;-78
2020/12/03 17:09:23;;;;;;;46.13;23.70;;;;;;;1.99;76.04;99674.00;10098508;28;20551;-78
2020/12/03 17:14:19;;;;;;;44.83;23.98;;;;;;;2.02;75.47;99651.84;10101022;28;20526;-83
2020/12/03 17:19:15;;;;;;;44.03;22.33;;;;;;;1.93;76.41;99648.19;10092373;28;20039;-77
2020/12/03 17:24:11;;;;;;;40.80;22.35;;;;;;;1.96;75.84;99653.03;10105571;28;20557;-78
2020/12/03 17:29:07;;;;;;;41.75;22.27;;;;;;;1.93;76.40;99637.41;10090373;28;20039;-78
2020/12/03 17:34:04;;;;;;;42.55;22.23;;;;;;;1.95;75.95;99629.81;10074395;28;20556;-77
2020/12/03 17:39:03;;;;;;;40.20;22.42;;;;;;;1.91;76.04;99629.63;10083514;28;20399;-82
2020/12/03 17:43:59;;;;;;;43.35;22.75;;;;;;;1.99;75.39;99631.66;10094960;28;20081;-82
2020/12/03 17:48:58;;;;;;;40.58;21.20;;;;;;;1.98;75.76;99607.69;10092113;28;20450;-81
2020/12/03 17:53:55;;;;;;;43.25;21.58;;;;;;;1.98;75.07;99619.28;10084938;28;20410;-77
2020/12/03 17:58:51;;;;;;;41.90;20.88;;;;;;;2.03;74.91;99621.91;10089555;28;20043;-77
2020/12/03 18:03:47;;;;;;;39.13;21.25;;;;;;;2.01;75.01;99612.50;10089110;28;20074;-79
2020/12/03 18:08:44;;;;;;;40.22;21.15;;;;;;;2.06;74.22;99599.75;10091756;28;20131;-78
2020/12/03 18:13:40;;;;;;;43.30;24.10;;;;;;;1.96;74.83;99610.69;10093099;28;20154;-80
2020/12/03 18:18:42;;;;;;;42.03;21.85;;;;;;;1.90;74.69;99592.94;10102580;28;20053;-79
2020/12/03 18:23:38;;;;;;;40.97;22.05;;;;;;;1.97;74.92;99601.50;10093333;28;20053;-80
2020/12/03 18:28:34;;;;;;;45.75;23.83;;;;;;;1.89;75.27;99589.47;10083676;28;20047;-79
2020/12/03 18:33:32;;;;;;;41.70;22.25;;;;;;;1.77;74.93;99575.59;10083061;28;20055;-82
2020/12/03 18:38:28;;;;;;;40.70;22.13;;;;;;;1.85;74.75;99566.84;10093075;28;20061;-82
2020/12/03 18:43:24;;;;;;;39.95;20.60;;;;;;;1.83;74.71;99563.66;10084649;28;20491;-82
2020/12/03 18:48:21;;;;;;;39.75;21.55;;;;;;;1.64;75.16;99565.50;10092486;28;20574;-81
2020/12/03 18:53:18;;;;;;;41.58;21.88;;;;;;;1.66;75.22;99556.03;10083523;28;20105;-82
2020/12/03 18:58:18;;;;;;;38.40;20.77;;;;;;;1.69;75.39;99573.50;10088137;28;20062;-82
2020/12/03 19:03:18;;;;;;;37.75;20.60;;;;;;;1.70;75.24;99548.19;10092632;28;20050;-83
2020/12/03 19:08:17;;;;;;;39.38;22.20;;;;;;;1.64;75.23;99544.72;10089954;28;20047;-82
2020/12/03 19:13:13;;;;;;;39.17;21.38;;;;;;;1.60;75.12;99534.81;10079224;28;20106;-83
2020/12/03 19:18:10;;;;;;;40.90;19.83;;;;;;;1.53;75.63;99531.66;10099331;28;20057;-84
2020/12/03 19:23:07;;;;;;;38.53;20.58;;;;;;;1.51;75.42;99528.44;10107714;28;20406;-83
2020/12/03 19:28:03;;;;;;;37.65;20.83;;;;;;;1.48;75.32;99513.66;10096839;28;20051;-82
2020/12/03 19:33:00;;;;;;;38.67;20.55;;;;;;;1.43;75.80;99506.44;10095429;28;20054;-80
2020/12/03 19:37:56;;;;;;;39.38;21.58;;;;;;;1.32;76.15;99494.19;10088830;28;20098;-80
2020/12/03 19:42:52;;;;;;;37.92;19.33;;;;;;;1.27;76.56;99503.09;10091359;28;20150;-81
2020/12/03 19:47:49;;;;;;;39.97;20.67;;;;;;;1.36;76.36;99495.22;10090005;28;20146;-81
2020/12/03 19:52:46;;;;;;;39.90;21.17;;;;;;;1.38;76.49;99484.97;10093095;28;20503;-81
2020/12/03 19:57:42;;;;;;;38.60;19.15;;;;;;;1.43;76.24;99484.91;10089635;28;20051;-80
2020/12/03 20:02:39;;;;;;;37.53;19.05;;;;;;;1.32;76.06;99472.63;10082520;28;20062;-81
2020/12/03 20:07:36;;;;;;;41.90;19.83;;;;;;;1.24;76.83;99462.50;10092229;28;20101;-81
2020/12/03 20:12:33;;;;;;;37.60;19.90;;;;;;;1.27;76.69;99464.63;10082571;28;20112;-80
2020/12/03 20:17:31;;;;;;;39.33;20.55;;;;;;;1.30;76.35;99458.69;10088200;28;20479;-83
2020/12/03 20:22:30;;;;;;;40.40;19.73;;;;;;;1.22;76.59;99457.41;10087781;28;20059;-83
2020/12/03 20:27:26;;;;;;;41.03;20.92;;;;;;;1.23;76.95;99455.50;10091217;28;20545;-83
2020/12/03 20:32:22;;;;;;;40.65;20.95;;;;;;;1.17;76.96;99454.75;10089042;28;20063;-77
2020/12/03 20:37:18;;;;;;;39.05;21.05;;;;;;;1.30;76.50;99458.69;10094540;28;20047;-78
2020/12/03 20:42:15;;;;;;;42.22;21.42;;;;;;;1.28;76.60;99447.38;10095466;28;20057;-77
2020/12/03 20:47:11;;;;;;;37.70;19.27;;;;;;;1.22;77.10;99446.63;10089716;28;20043;-78
2020/12/03 20:52:07;;;;;;;37.80;19.25;;;;;;;1.28;76.76;99433.91;10097800;28;20042;-78
2020/12/03 20:57:03;;;;;;;34.03;18.33;;;;;;;1.32;76.73;99434.94;10079855;28;20055;-77
2020/12/03 21:02:00;;;;;;;35.15;18.85;;;;;;;1.39;76.50;99424.63;10100286;28;20051;-77
2020/12/03 21:06:56;;;;;;;32.15;17.02;;;;;;;1.41;76.68;99417.03;10068618;28;20058;-79
2020/12/03 21:11:52;;;;;;;35.47;19.52;;;;;;;1.49;76.45;99412.91;10072789;28;20054;-78
2020/12/03 21:16:54;;;;;;;36.65;18.80;;;;;;;1.50;76.47;99402.94;10073873;28;20057;-84
2020/12/03 21:21:50;;;;;;;34.92;17.55;;;;;;;1.60;76.01;99414.41;10071402;28;20081;-80
2020/12/03 21:26:46;;;;;;;35.45;19.33;;;;;;;1.67;75.89;99414.00;10092837;28;20051;-80
2020/12/03 21:31:42;;;;;;;35.63;17.95;;;;;;;1.66;75.34;99401.66;10078336;28;20073;-80
2020/12/03 21:36:40;;;;;;;31.25;17.52;;;;;;;1.70;75.41;99391.91;10069624;28;20527;-80
2020/12/03 21:41:36;;;;;;;36.58;18.45;;;;;;;1.61;75.07;99396.34;10089593;28;20133;-80
2020/12/03 21:46:32;;;;;;;33.75;17.20;;;;;;;1.65;75.05;99394.66;10109540;28;20141;-80
2020/12/03 21:51:34;;;;;;;36.00;16.90;;;;;;;1.64;74.74;99387.66;10094475;28;20233;-79
2020/12/03 21:56:30;;;;;;;34.33;18.13;;;;;;;1.65;74.69;99389.28;10089457;28;20137;-80
2020/12/03 22:01:27;;;;;;;32.72;17.88;;;;;;;1.77;74.59;99386.94;10096999;28;20203;-80
2020/12/03 22:06:23;;;;;;;31.80;17.55;;;;;;;1.75;74.58;99372.16;10091230;28;20483;-80
2020/12/03 22:11:19;;;;;;;31.98;17.45;;;;;;;1.78;74.57;99383.13;10103562;28;20056;-79
2020/12/03 22:16:15;;;;;;;29.35;15.98;;;;;;;1.84;74.21;99381.97;10101169;28;20046;-79
2020/12/03 22:21:12;;;;;;;30.25;15.98;;;;;;;1.85;73.94;99383.56;10109543;28;20073;-79
2020/12/03 22:26:08;;;;;;;32.00;16.17;;;;;;;1.81;73.64;99371.78;10100301;28;20051;-80
2020/12/03 22:31:04;;;;;;;29.90;15.73;;;;;;;1.79;73.51;99371.28;10078508;28;20054;-81
2020/12/03 22:36:00;;;;;;;31.23;16.58;;;;;;;1.75;73.47;99356.78;10089990;28;20057;-80
2020/12/03 22:40:57;;;;;;;29.75;15.85;;;;;;;1.72;73.60;99346.59;10094757;28;20042;-79
2020/12/03 22:45:53;;;;;;;35.47;16.80;;;;;;;1.76;73.91;99346.78;10099420;28;20046;-79
2020/12/03 22:50:49;;;;;;;32.15;15.80;;;;;;;1.81;73.72;99342.16;10094114;28;20046;-80